KPUB/PUB METAR and TAF weather

Enter ICAO airport designator
Station Type Date Time Source
KPUB METAR 2019/02/16 07:53 UTC NOAA

KPUB 160753Z AUTO 10005KT 7SM BKN007 M07/M09 A2973 RMK AO2 SLP060 T10671089


Station Type Date Time Source
KPUB Decoded METAR 2019/02/16 07:53 UTC NOAA

PUEBLO MEMORIAL AIRPORT, CO, United States (KPUB) 38-17N 104-30W 1420M
Feb 16, 2019 - 02:53 AM EST / 2019.02.16 0753 UTC
Wind: from the E (100 degrees) at 6 MPH (5 KT):0
Visibility: 7 mile(s):0
Sky conditions: mostly cloudy
Temperature: 19.9 F (-6.7 C)
Windchill: 12 F (-11 C):1
Dew Point: 16.0 F (-8.9 C)
Relative Humidity: 84%
Pressure (altimeter): 29.73 in. Hg (1006 hPa)
ob: KPUB 160753Z AUTO 10005KT 7SM BKN007 M07/M09 A2973 RMK AO2 SLP060 T10671089
cycle: 8

Station Type Date Time Source
KPUB TAF 2019/02/16 07:48 UTC NOAA

TAF
AMD KPUB 160646Z 1607/1706 12008KT P6SM SCT010
FM160730 10006KT P6SM BKN008
FM161600 20008KT P6SM SCT008 BKN100
FM161800 27015G25KT P6SM FEW200
FM162000 33030G40KT P6SM BKN100
FM162300 33020G30KT P6SM SCT050 BKN100
FM170300 35010KT P6SM SCT100 SCT200


Example: see airport list